• Join FlightAware (Why Join?)
  • Login
  • US Flag 
10:29PM EDT


 

Airport Tracker/Info


-or-


 

Live Flight TrackerFlight Track Log ✈ DAL2028 ✈ 06-Jun-2013 ✈ KMCO - KDTW

Flight Track Log - Related Links

Times and Time Zones

All times are in EDT time to prevent confusion due to time zone crossing. See the DAL2028 flight status page for this flight to view local times or setup timezone preferences in your user account.

Time Position Orientation Groundspeed Altitude Reporting Facility
EDT Latitude Longitude Course Direction KTS MPH feet Rate Location/Type
04:11PM 28.4000 -81.3000 350° North 167 192 900  Level Orlando TRACON
04:12PM 28.3667 -81.3167 204° Southwest 199 229 3,500 2,820 Climbing Orlando TRACON
04:13PM 28.3500 -81.3833 254° West 268 308 6,600 2,700 Climbing Orlando TRACON
04:14PM 28.7817 -81.3474 353° North  Level FlightAware Approximate
04:15PM 28.9039 -81.3641 350° North  Level FlightAware Approximate
04:15PM 28.5006 -81.4350 343° North 298 343 11,400  Level Jacksonville Center
04:16PM 29.0266 -81.3720 350° North  Level FlightAware Approximate
04:16PM 28.6094 -81.4594 349° North 343 395 13,500  Level Jacksonville Center
04:17PM 28.7183 -81.4864 348° North 380 437 16,200 2,520 Climbing Jacksonville Center
04:18PM 28.8292 -81.5181 346° North 394 453 18,600 2,160 Climbing Jacksonville Center
04:19PM 28.9442 -81.5497 346° North 409 471 20,600 1,740 Climbing Jacksonville Center
04:20PM 29.0678 -81.5764 349° North 421 484 22,100 1,680 Climbing Jacksonville Center
04:21PM 29.1892 -81.6128 345° North 435 501 24,000 1,740 Climbing Jacksonville Center
04:22PM 29.2981 -81.6472 345° North 441 507 25,600 1,440 Climbing Jacksonville Center
04:23PM 29.4275 -81.6575 356° North 453 521 26,900 1,200 Climbing Jacksonville Center
04:24PM 29.5614 -81.6700 355° North 463 533 28,100 1,020 Climbing Jacksonville Center
04:25PM 29.6992 -81.6875 354° North 480 552 29,000 420 Climbing Jacksonville Center
04:26PM 29.8433 -81.7047 354° North 500 575 29,000  Level Jacksonville Center
04:27PM 29.9836 -81.7222 354° North 506 582 29,100 1,080 Climbing Jacksonville Center
04:28PM 30.1133 -81.7711 342° North 496 571 31,200 1,560 Climbing Jacksonville Center
04:29PM 30.2369 -81.8300 338° Northwest 486 559 32,300 1,020 Climbing Jacksonville Center
04:30PM 30.3689 -81.8767 343° North 480 552 33,300 1,140 Climbing Jacksonville Center
04:31PM 30.5050 -81.9089 348° North 485 558 34,600 1,380 Climbing Jacksonville Center
04:32PM 30.6514 -81.9508 346° North 496 571 36,100 1,200 Climbing Jacksonville Center
04:33PM 30.7831 -81.9833 348° North 491 565 37,000 420 Climbing Jacksonville Center
04:34PM 30.9211 -82.0064 352° North 491 565 37,000  Level Jacksonville Center
04:35PM 31.0589 -82.0194 355° North 491 565 37,000  Level Jacksonville Center
04:36PM 31.1947 -82.0256 358° North 485 558 37,000  Level Jacksonville Center
04:37PM 31.3347 -82.0317 358° North 485 558 37,000 -60 Level Jacksonville Center
04:38PM 31.4706 -82.0425 356° North 485 558 36,900  Descending Jacksonville Center
04:39PM 31.6083 -82.0486 358° North 490 564 37,000  Climbing Jacksonville Center
04:40PM 31.7294 -82.0522 359° North 490 564 37,000  Level Jacksonville Center
04:41PM 31.8839 -82.0606 357° North 502 578 37,000  Level Jacksonville Center
04:42PM 32.1128 -82.0722 358° North 519 597 37,000  Level Atlanta Center
04:43PM 32.2550 -82.0789 358° North 514 592 37,000  Level Atlanta Center
04:44PM 32.3928 -82.0881 357° North 503 579 37,000  Level Atlanta Center
04:45PM 32.5350 -82.0972 357° North 503 579 37,000  Level Atlanta Center
04:46PM 32.6706 -82.1042 358° North 493 567 37,000  Level Atlanta Center
04:47PM 32.8106 -82.1136 357° North 493 567 37,000  Level Atlanta Center
04:48PM 32.9506 -82.1178 359° North 499 574 37,000  Level Atlanta Center
04:49PM 33.0886 -82.1272 357° North 499 574 37,000  Level Atlanta Center
04:50PM 33.2264 -82.1342 358° North 499 574 37,000  Level Atlanta Center
04:51PM 33.3622 -82.1411 358° North 499 574 37,000  Level Atlanta Center
04:52PM 33.4997 -82.1356 North 493 567 37,000  Level Atlanta Center
04:53PM 33.6369 -82.1050 11° North 493 567 37,000  Level Atlanta Center
04:54PM 33.7619 -82.0772 10° North 504 580 37,000  Level Atlanta Center
04:55PM 33.8992 -82.0492 10° North 504 580 37,000  Level Atlanta Center
04:56PM 34.0386 -82.0183 10° North 504 580 37,000  Level Atlanta Center
04:57PM 34.1736 -81.9900 10° North 504 580 37,000  Level Atlanta Center
04:58PM 34.3131 -81.9589 10° North 504 580 37,000  Level Atlanta Center
04:59PM 34.4503 -81.9278 11° North 504 580 37,000  Level Atlanta Center
05:00PM 34.5875 -81.8942 11° North 504 580 37,000  Level Atlanta Center
05:01PM 34.7247 -81.8703 North 498 573 37,000  Level Atlanta Center
05:02PM 34.8639 -81.8364 11° North 505 581 37,000  Level Atlanta Center
05:03PM 34.9989 -81.8000 12° North 505 581 37,000  Level Atlanta Center
05:04PM 35.1403 -81.7681 10° North 505 581 37,000  Level Atlanta Center
05:05PM 35.2897 -81.7361 10° North 504 580 37,000  Level Atlanta Center
05:06PM 35.4311 -81.7042 10° North 504 580 37,000  Level Atlanta Center
05:07PM 35.5703 -81.6694 11° North 504 580 37,000  Level Atlanta Center
05:08PM 35.7114 -81.6372 11° North 504 580 37,000  Level Atlanta Center
05:09PM 35.8506 -81.6022 12° North 504 580 37,000  Level Atlanta Center
05:10PM 35.9750 -81.5731 11° North 509 586 37,000  Level Atlanta Center
05:11PM 36.1142 -81.5378 12° North 509 586 37,000  Level Atlanta Center
05:12PM 36.2553 -81.5000 12° North 504 580 37,000  Level Atlanta Center
05:13PM 36.3942 -81.4672 11° North 504 580 37,000  Level Atlanta Center
05:14PM 36.5333 -81.4344 11° North 504 580 37,000  Level Atlanta Center
05:16PM 36.7372 -81.3825 12° North 505 581 37,000  Level Indianapolis Center
05:17PM 36.8728 -81.3492 11° North 506 582 37,000  Level Indianapolis Center
05:18PM 37.0364 -81.3097 11° North 506 582 37,000  Level Indianapolis Center
05:19PM 37.1706 -81.2764 11° North 494 568 37,000  Level Indianapolis Center
05:20PM 37.2986 -81.2458 11° North 492 566 37,000  Level Indianapolis Center
05:21PM 37.4544 -81.2056 12° North 487 560 37,000  Level Indianapolis Center
05:22PM 37.5828 -81.1736 11° North 481 554 37,000  Level Indianapolis Center
05:23PM 37.7089 -81.1425 11° North 475 547 37,000  Level Indianapolis Center
05:24PM 37.8325 -81.1417 360° North 462 532 37,000  Level Indianapolis Center
05:25PM 37.9744 -81.1936 344° North 446 513 37,000  Level Indianapolis Center
05:26PM 38.0908 -81.2394 343° North 440 506 37,000  Level Indianapolis Center
05:27PM 38.1994 -81.3053 335° Northwest 433 498 37,000  Level Indianapolis Center
05:28PM 38.3047 -81.3736 333° Northwest 425 489 37,000  Level Indianapolis Center
05:29PM 38.4131 -81.4425 334° Northwest 432 497 37,000  Level Indianapolis Center
05:30PM 38.5217 -81.5131 333° Northwest 435 501 37,000  Level Indianapolis Center
05:31PM 38.6456 -81.5819 337° Northwest 443 510 37,000  Level Indianapolis Center
05:32PM 38.7692 -81.6133 349° North 453 521 37,000  Level Indianapolis Center
05:33PM 38.8992 -81.6367 352° North 465 535 37,000  Level Indianapolis Center
05:34PM 39.0517 -81.6700 350° North 462 532 37,000  Level Indianapolis Center
05:35PM 39.1808 -81.6947 352° North 466 536 37,000  Level Indianapolis Center
05:37PM 39.3069 -81.7217 351° North 461 531 37,000  Level Indianapolis Center
05:38PM 39.4342 -81.7481 351° North 461 531 37,000 -60 Level Indianapolis Center
05:39PM 39.5617 -81.7750 351° North 462 532 36,900 -960 Descending Indianapolis Center
05:40PM 39.6886 -81.8008 351° North 461 531 35,100 -1,500 Descending Indianapolis Center
05:41PM 39.8222 -81.8300 350° North 444 511 33,800 -1,620 Descending Indianapolis Center
05:42PM 39.9453 -81.8567 351° North 444 511 31,800 -1,860 Descending Indianapolis Center
05:43PM 40.0686 -81.8814 351° North 443 510 30,000 -1,860 Descending Indianapolis Center
05:44PM 40.2147 -81.9139 350° North 454 522 28,000 -1,440 Descending Indianapolis Center
05:45PM 40.3400 -81.9394 351° North 461 531 27,100 -480 Descending Indianapolis Center
05:46PM 40.4672 -81.9694 350° North 459 528 27,000 -60 Descending Indianapolis Center
05:47PM 40.5942 -81.9953 351° North 458 527 27,000  Level Indianapolis Center
05:48PM 40.7211 -82.0225 351° North 457 526 27,000  Level Indianapolis Center
05:49PM 40.8539 -82.0517 351° North 451 519 27,000 -720 Level Cleveland Center
05:51PM 41.0947 -82.1289 346° North 439 505 25,000 -1,020 Descending Cleveland Center
05:52PM 41.1894 -82.2250 323° Northwest 419 482 24,000 -540 Descending Cleveland Center
05:53PM 41.2797 -82.3211 321° Northwest 419 482 24,000 -960 Level Cleveland Center
05:54PM 41.3700 -82.4119 323° Northwest 419 482 22,100 -2,640 Descending Cleveland Center
05:55PM 41.4478 -82.4947 321° Northwest 407 468 18,800 -3,300 Descending Cleveland Center
05:56PM 41.5297 -82.5775 323° Northwest 385 443 15,500 -2,580 Descending Cleveland Center
05:57PM 41.6036 -82.6547 322° Northwest 355 409 13,700 -1,740 Descending Cleveland Center
05:58PM 41.6711 -82.7236 323° Northwest 333 383 12,400 -900 Descending Cleveland Center
05:59PM 41.7406 -82.7983 321° Northwest 280 322 12,100 -900 Descending Cleveland Center
06:00PM 41.8056 -82.8786 317° Northwest 291 335 10,500 -1,440 Descending Cleveland Center
06:01PM 41.8606 -82.9419 319° Northwest 291 335 9,100 -1,260 Descending Cleveland Center
06:02PM 41.9342 -83.0144 324° Northwest 284 327 8,000 -1,080 Descending Cleveland Center
06:03PM 41.9894 -83.0611 328° Northwest 285 328 7,000 -480 Descending Cleveland Center
06:04PM 42.0403 -83.1219 318° Northwest 263 303 7,100  Climbing Cleveland Center
06:05PM 42.0700 -83.1958 298° West 242 278 7,000 -120 Descending Cleveland Center
06:06PM 42.0553 -83.2903 258° West 218 251 6,900 -720 Descending Cleveland Center
06:07PM 41.9953 -83.3547 219° Southwest 238 274 5,500 -960 Descending Cleveland Center
06:08PM 41.9356 -83.4081 214° Southwest 214 246 4,700 -780 Descending Cleveland Center
06:09PM 41.8886 -83.4478 212° Southwest 208 239 4,000 -360 Descending Cleveland Center
06:10PM 41.8786 -83.5200 259° West 192 221 4,000  Level Cleveland Center
06:11PM 41.9153 -83.5522 327° Northwest 188 216 4,100  Climbing Cleveland Center
06:12PM 41.9619 -83.5236 25° Northeast 185 213 4,100  Level Cleveland Center
06:13PM 42.0086 -83.4922 27° Northeast 182 209 4,100 -120 Level Cleveland Center
06:14PM 42.0511 -83.4550 33° Northeast 186 214 3,900 -240 Descending Cleveland Center